createdAt,value
2018-06-09T00:01:54.426Z,25.67
2018-06-09T00:04:25.037Z,25.72
2018-06-09T00:06:55.719Z,25.59
2018-06-09T00:09:25.940Z,25.85
2018-06-09T00:11:56.793Z,25.88
2018-06-09T00:14:26.980Z,25.89
2018-06-09T00:16:58.102Z,25.92
2018-06-09T00:19:28.551Z,25.71
2018-06-09T00:21:59.313Z,25.36
2018-06-09T00:24:29.993Z,25.19
2018-06-09T00:27:00.726Z,25.27
2018-06-09T00:29:31.397Z,25.19
2018-06-09T00:32:02.237Z,25.21
2018-06-09T00:34:32.854Z,25.17
2018-06-09T00:37:03.560Z,25.31
2018-06-09T00:39:34.187Z,25.42
2018-06-09T00:42:04.924Z,25.40
2018-06-09T00:44:35.602Z,25.40
2018-06-09T00:47:06.340Z,25.43
2018-06-09T00:49:37.013Z,25.44
2018-06-09T00:52:08.164Z,25.47
2018-06-09T00:54:38.834Z,25.43
2018-06-09T00:57:09.562Z,25.30
2018-06-09T00:59:40.261Z,25.19
2018-06-09T01:02:11.027Z,25.20
2018-06-09T01:04:41.608Z,25.09
2018-06-09T01:07:12.289Z,25.16
2018-06-09T01:09:42.989Z,25.05
2018-06-09T01:12:13.677Z,25.14
2018-06-09T01:14:44.354Z,25.08
2018-06-09T01:17:15.046Z,25.10
2018-06-09T01:19:45.704Z,25.14
2018-06-09T01:22:16.489Z,25.10
2018-06-09T01:24:47.185Z,24.91
2018-06-09T01:27:17.885Z,24.51
2018-06-09T01:29:48.554Z,24.54
2018-06-09T01:32:19.369Z,24.22
2018-06-09T01:34:50.023Z,24.48
2018-06-09T01:37:20.869Z,24.47
2018-06-09T01:39:51.577Z,24.47
2018-06-09T01:42:22.695Z,24.59
2018-06-09T01:44:53.366Z,24.65
2018-06-09T01:47:23.982Z,24.46
2018-06-09T01:49:54.678Z,24.28
2018-06-09T01:52:25.774Z,24.30
2018-06-09T01:54:56.385Z,23.93
2018-06-09T01:57:27.329Z,23.69
2018-06-09T01:59:57.965Z,23.91
2018-06-09T02:02:28.545Z,24.04
2018-06-09T02:04:59.241Z,24.16
2018-06-09T02:07:30.065Z,24.35
2018-06-09T02:10:00.793Z,24.41
2018-06-09T02:12:31.620Z,24.51
2018-06-09T02:15:02.255Z,24.61
2018-06-09T02:17:33.322Z,24.61
2018-06-09T02:20:04.198Z,24.65
2018-06-09T02:22:34.985Z,24.23
2018-06-09T02:25:05.614Z,24.38
2018-06-09T02:27:36.409Z,24.43
2018-06-09T02:30:07.063Z,24.38
2018-06-09T02:32:37.893Z,24.35
2018-06-09T02:35:08.594Z,24.06
2018-06-09T02:37:39.522Z,24.10
2018-06-09T02:40:10.146Z,24.21
2018-06-09T02:42:40.805Z,24.22
2018-06-09T02:45:11.473Z,24.25
2018-06-09T02:47:42.299Z,24.23
2018-06-09T02:50:13.049Z,24.22
2018-06-09T02:52:43.728Z,24.25
2018-06-09T02:55:14.555Z,24.18
2018-06-09T02:57:45.529Z,24.31
2018-06-09T03:00:16.170Z,24.39
2018-06-09T03:02:46.864Z,24.45
2018-06-09T03:05:17.582Z,24.41
2018-06-09T03:07:48.387Z,24.43
2018-06-09T03:10:19.033Z,24.45
2018-06-09T03:12:49.765Z,24.34
2018-06-09T03:15:20.373Z,24.44
2018-06-09T03:17:56.613Z,24.68
2018-06-09T03:20:27.206Z,24.77
2018-06-09T03:22:57.897Z,24.73
2018-06-09T03:25:28.633Z,24.83
2018-06-09T03:27:59.461Z,25.00
2018-06-09T03:30:30.174Z,25.16
2018-06-09T03:33:00.877Z,24.96
2018-06-09T03:35:31.569Z,24.89
2018-06-09T03:38:02.270Z,24.86
2018-06-09T03:40:32.953Z,24.84
2018-06-09T03:43:11.067Z,24.62
2018-06-09T03:45:42.806Z,24.84
2018-06-09T03:48:13.699Z,25.11
2018-06-09T03:50:44.532Z,25.04
2018-06-09T03:53:15.403Z,24.98
2018-06-09T03:55:46.098Z,24.86
2018-06-09T03:58:16.769Z,24.79
2018-06-09T04:00:47.545Z,24.89
2018-06-09T04:03:18.393Z,24.58
2018-06-09T04:05:49.077Z,24.59
2018-06-09T04:08:19.819Z,24.82
2018-06-09T04:10:50.553Z,24.95
2018-06-09T04:13:21.345Z,25.25
2018-06-09T04:15:52.086Z,24.93
2018-06-09T04:18:22.924Z,24.89
2018-06-09T04:20:53.592Z,24.82
2018-06-09T04:23:24.457Z,24.93
2018-06-09T04:25:55.162Z,25.39
2018-06-09T04:28:25.763Z,25.51
2018-06-09T04:30:56.491Z,25.53
2018-06-09T04:33:27.186Z,25.17
2018-06-09T04:35:57.990Z,25.24
2018-06-09T04:38:28.713Z,25.63
2018-06-09T04:40:58.985Z,25.44
2018-06-09T04:43:29.619Z,25.29
2018-06-09T04:46:00.318Z,25.45
2018-06-09T04:48:31.081Z,25.57
2018-06-09T04:51:01.826Z,25.89
2018-06-09T04:53:32.689Z,25.76
2018-06-09T04:56:03.142Z,26.45
2018-06-09T04:58:33.420Z,27.17
2018-06-09T05:01:03.781Z,26.95
2018-06-09T05:03:34.042Z,26.66
2018-06-09T05:06:05.105Z,27.38
2018-06-09T05:08:35.786Z,27.78
2018-06-09T05:11:06.536Z,27.86
2018-06-09T05:13:37.513Z,27.74
2018-06-09T05:16:08.195Z,27.30
2018-06-09T05:18:42.733Z,27.84
2018-06-09T05:21:13.537Z,28.05
2018-06-09T05:23:44.193Z,27.60
2018-06-09T05:26:14.839Z,28.26
2018-06-09T05:28:45.214Z,28.22
2018-06-09T05:31:16.117Z,27.71
2018-06-09T05:33:46.377Z,27.78
2018-06-09T05:36:17.181Z,28.33
2018-06-09T05:38:47.518Z,28.29
2018-06-09T05:41:17.941Z,28.70
2018-06-09T05:43:48.596Z,28.46
2018-06-09T05:46:20.109Z,28.27
2018-06-09T05:48:50.450Z,28.65
2018-06-09T05:51:21.090Z,28.17
2018-06-09T05:53:51.681Z,28.09
2018-06-09T05:56:22.284Z,27.97
2018-06-09T05:58:52.924Z,28.56
2018-06-09T06:01:23.874Z,28.84
2018-06-09T06:03:54.287Z,28.65
2018-06-09T06:06:25.003Z,28.18
2018-06-09T06:08:55.474Z,28.28
2018-06-09T06:11:26.062Z,28.14
2018-06-09T06:13:56.403Z,28.43
2018-06-09T06:16:27.014Z,28.27
2018-06-09T06:18:57.331Z,27.17
2018-06-09T06:21:27.820Z,28.12
2018-06-09T06:23:57.696Z,28.28
2018-06-09T06:26:28.305Z,29.09
2018-06-09T06:28:58.586Z,29.03
2018-06-09T06:31:29.109Z,28.56
2018-06-09T06:33:59.890Z,28.56
2018-06-09T06:36:30.437Z,28.67
2018-06-09T06:39:00.717Z,28.58
2018-06-09T06:41:31.090Z,28.24
2018-06-09T06:44:01.543Z,28.40
2018-06-09T06:46:32.147Z,27.81
2018-06-09T06:49:02.816Z,28.25
2018-06-09T06:51:33.077Z,28.37
2018-06-09T06:54:03.706Z,28.69
2018-06-09T06:56:34.007Z,28.66
2018-06-09T06:59:04.342Z,28.66
2018-06-09T07:01:34.814Z,29.21
2018-06-09T07:04:05.158Z,29.03
2018-06-09T07:06:35.901Z,29.63
2018-06-09T07:09:09.026Z,29.80
2018-06-09T07:11:39.721Z,29.19
2018-06-09T07:14:09.999Z,28.47
2018-06-09T07:16:40.317Z,29.08
2018-06-09T07:19:10.887Z,28.79
2018-06-09T07:21:41.173Z,29.02
2018-06-09T07:24:11.538Z,29.79
2018-06-09T07:26:41.829Z,30.41
2018-06-09T07:29:12.298Z,30.15
2018-06-09T07:31:42.591Z,30.72
2018-06-09T07:34:12.959Z,30.26
2018-06-09T07:36:43.314Z,31.05
2018-06-09T07:39:13.692Z,31.06
2018-06-09T07:41:44.012Z,30.95
2018-06-09T07:44:14.598Z,31.05
2018-06-09T07:46:45.166Z,30.94
2018-06-09T07:49:15.589Z,31.27
2018-06-09T07:51:45.910Z,30.58
2018-06-09T07:54:16.186Z,31.41
2018-06-09T07:56:46.933Z,30.51
2018-06-09T07:59:17.638Z,30.60
2018-06-09T08:01:48.076Z,30.52
2018-06-09T08:04:18.337Z,31.20
2018-06-09T08:06:48.679Z,30.96
2018-06-09T08:09:19.018Z,30.57
2018-06-09T08:11:49.408Z,30.33
2018-06-09T08:14:19.700Z,30.65
2018-06-09T08:16:49.994Z,31.04
2018-06-09T08:19:20.763Z,30.91
2018-06-09T08:21:51.249Z,30.93
2018-06-09T08:24:21.581Z,31.74
2018-06-09T08:26:51.861Z,32.45
2018-06-09T08:29:22.137Z,32.77
2018-06-09T08:31:52.653Z,32.95
2018-06-09T08:34:22.962Z,31.78
2018-06-09T08:36:53.744Z,32.16
2018-06-09T08:39:24.553Z,32.90
2018-06-09T08:41:55.319Z,32.74
2018-06-09T08:44:25.665Z,32.44
2018-06-09T08:46:56.010Z,32.95
2018-06-09T08:49:26.573Z,33.53
2018-06-09T08:51:57.050Z,33.60
2018-06-09T08:54:27.379Z,34.29
2018-06-09T08:56:57.719Z,34.38
2018-06-09T08:59:28.318Z,34.22
2018-06-09T09:01:58.869Z,34.41
2018-06-09T09:04:29.203Z,33.80
2018-06-09T09:06:59.522Z,34.07
2018-06-09T09:09:30.381Z,34.21
2018-06-09T09:12:00.665Z,35.12
2018-06-09T09:14:30.934Z,34.55
2018-06-09T09:17:01.646Z,35.04
2018-06-09T09:19:31.921Z,34.78
2018-06-09T09:22:02.531Z,33.77
2018-06-09T09:24:33.274Z,34.28
2018-06-09T09:27:03.885Z,34.73
2018-06-09T09:29:34.156Z,34.79
2018-06-09T09:32:05.627Z,34.69
2018-06-09T09:34:35.962Z,34.71
2018-06-09T09:37:06.305Z,35.38
2018-06-09T09:39:36.583Z,35.43
2018-06-09T09:42:06.941Z,35.84
2018-06-09T09:44:37.258Z,36.15
2018-06-09T09:47:08.163Z,36.30
2018-06-09T09:49:39.078Z,36.31
2018-06-09T09:52:09.421Z,35.11
2018-06-09T09:54:41.122Z,35.13
2018-06-09T09:57:11.522Z,35.00
2018-06-09T09:59:41.801Z,35.87
2018-06-09T10:02:12.194Z,36.02
2018-06-09T10:04:42.548Z,36.69
2018-06-09T10:07:12.869Z,37.92
2018-06-09T10:09:43.232Z,36.82
2018-06-09T10:12:13.625Z,36.95
2018-06-09T10:14:43.978Z,36.88
2018-06-09T10:17:14.471Z,36.09
2018-06-09T10:19:44.782Z,37.52
2018-06-09T10:22:15.274Z,37.31
2018-06-09T10:24:45.650Z,36.57
2018-06-09T10:27:16.366Z,36.78
2018-06-09T10:29:46.661Z,37.13
2018-06-09T10:32:17.664Z,37.73
2018-06-09T10:34:47.958Z,37.84
2018-06-09T10:37:18.406Z,36.45
2018-06-09T10:39:48.731Z,38.01
2018-06-09T10:42:19.113Z,38.05
2018-06-09T10:44:49.909Z,37.45
2018-06-09T10:47:21.014Z,36.73
2018-06-09T10:49:51.689Z,38.63
2018-06-09T10:52:22.527Z,37.76
2018-06-09T10:54:53.271Z,38.56
2018-06-09T10:57:24.083Z,39.18
2018-06-09T10:59:54.742Z,39.25
2018-06-09T11:02:25.626Z,39.12
2018-06-09T11:04:55.933Z,38.38
2018-06-09T11:07:26.423Z,38.74
2018-06-09T11:09:56.721Z,38.39
2018-06-09T11:12:27.470Z,36.97
2018-06-09T11:14:58.210Z,37.68
2018-06-09T11:17:28.994Z,38.30
2018-06-09T11:19:59.514Z,38.40
2018-06-09T11:22:30.446Z,38.33
2018-06-09T11:25:00.758Z,39.09
2018-06-09T11:27:31.141Z,39.72
2018-06-09T11:30:01.488Z,38.08
2018-06-09T11:32:31.796Z,37.97
2018-06-09T11:35:02.133Z,37.34
2018-06-09T11:37:32.769Z,37.65
2018-06-09T11:40:03.166Z,38.27
2018-06-09T11:42:33.595Z,39.71
2018-06-09T11:45:04.387Z,39.79
2018-06-09T11:47:34.686Z,39.98
2018-06-09T11:50:05.102Z,40.03
2018-06-09T11:52:35.394Z,40.33
2018-06-09T11:55:05.699Z,39.18
2018-06-09T11:57:36.040Z,39.96
2018-06-09T12:00:06.354Z,39.03
2018-06-09T12:02:36.810Z,39.07
2018-06-09T12:05:07.207Z,38.51
2018-06-09T12:07:37.813Z,38.07
2018-06-09T12:10:08.509Z,37.81
2018-06-09T12:12:38.940Z,38.27
2018-06-09T12:15:09.256Z,38.83
2018-06-09T12:17:40.082Z,38.61
2018-06-09T12:20:10.770Z,37.92
2018-06-09T12:22:41.329Z,38.14
2018-06-09T12:25:11.913Z,37.98
2018-06-09T12:27:42.267Z,37.35
2018-06-09T12:30:12.945Z,37.78
2018-06-09T12:32:43.722Z,37.32
2018-06-09T12:35:14.358Z,37.33
2018-06-09T12:37:45.233Z,37.15
2018-06-09T12:40:16.026Z,37.44
2018-06-09T12:42:46.757Z,37.23
2018-06-09T12:45:17.449Z,37.42
2018-06-09T12:47:48.530Z,38.30
2018-06-09T12:50:18.883Z,38.30
2018-06-09T12:52:49.837Z,38.50
2018-06-09T12:55:20.482Z,38.20
2018-06-09T12:57:51.354Z,37.84
2018-06-09T13:00:22.108Z,38.04
2018-06-09T13:02:52.765Z,38.95
2018-06-09T13:05:23.054Z,39.21
2018-06-09T13:07:54.046Z,39.49
2018-06-09T13:10:24.838Z,39.33
2018-06-09T13:12:55.559Z,39.52
2018-06-09T13:15:26.347Z,39.35
2018-06-09T13:17:57.215Z,39.33
2018-06-09T13:20:27.973Z,38.82
2018-06-09T13:22:58.705Z,38.63
2018-06-09T13:25:29.390Z,38.23
2018-06-09T13:27:59.722Z,38.50
2018-06-09T13:30:30.007Z,39.28
2018-06-09T13:33:00.701Z,37.32
2018-06-09T13:35:31.386Z,36.36
2018-06-09T13:38:02.189Z,35.83
2018-06-09T13:40:32.952Z,35.91
2018-06-09T13:43:04.206Z,35.78
2018-06-09T13:45:34.453Z,36.12
2018-06-09T13:48:04.970Z,36.09
2018-06-09T13:50:35.282Z,35.80
2018-06-09T13:53:05.849Z,36.02
2018-06-09T13:55:36.150Z,36.55
2018-06-09T13:58:06.525Z,36.56
2018-06-09T14:00:36.821Z,36.34
2018-06-09T14:03:07.309Z,36.48
2018-06-09T14:05:37.602Z,36.23
2018-06-09T14:08:08.154Z,36.30
2018-06-09T14:10:38.452Z,35.80
2018-06-09T14:13:08.897Z,36.02
2018-06-09T14:15:39.199Z,35.93
2018-06-09T14:18:09.497Z,35.82
2018-06-09T14:20:39.861Z,35.82
2018-06-09T14:23:10.202Z,35.51
2018-06-09T14:25:40.555Z,35.49
2018-06-09T14:28:10.866Z,35.64
2018-06-09T14:30:42.818Z,35.58
2018-06-09T14:33:13.430Z,35.62
2018-06-09T14:35:43.817Z,35.52
2018-06-09T14:38:14.129Z,35.63
2018-06-09T14:40:44.548Z,35.50
2018-06-09T14:43:14.849Z,35.61
2018-06-09T14:45:46.516Z,35.50
2018-06-09T14:48:16.869Z,35.55
2018-06-09T14:50:47.285Z,35.70
2018-06-09T14:53:17.597Z,35.87
2018-06-09T14:55:48.142Z,35.94
2018-06-09T14:58:18.501Z,36.15
2018-06-09T15:00:49.110Z,36.11
2018-06-09T15:03:19.417Z,35.84
2018-06-09T15:05:49.373Z,35.87
2018-06-09T15:08:20.517Z,36.04
2018-06-09T15:10:51.217Z,35.90
2018-06-09T15:13:21.554Z,35.83
2018-06-09T15:15:52.005Z,35.64
2018-06-09T15:18:22.309Z,35.47
2018-06-09T15:20:52.733Z,35.52
2018-06-09T15:23:23.014Z,35.50
2018-06-09T15:25:53.394Z,35.30
2018-06-09T15:28:23.798Z,35.11
2018-06-09T15:30:54.246Z,35.47
2018-06-09T15:33:24.746Z,35.75
2018-06-09T15:35:55.057Z,35.83
2018-06-09T15:38:25.362Z,35.64
2018-06-09T15:40:55.834Z,35.20
2018-06-09T15:43:26.129Z,35.01
2018-06-09T15:45:56.423Z,34.98
2018-06-09T15:48:26.989Z,34.60
2018-06-09T15:50:57.312Z,34.74
2018-06-09T15:53:27.640Z,34.55
2018-06-09T15:55:57.962Z,34.57
2018-06-09T15:58:28.261Z,34.54
2018-06-09T16:00:58.570Z,34.61
2018-06-09T16:03:28.833Z,34.63
2018-06-09T16:05:59.220Z,34.50
2018-06-09T16:08:29.493Z,34.45
2018-06-09T16:10:59.875Z,34.58
2018-06-09T16:13:30.150Z,34.28
2018-06-09T16:16:00.594Z,34.35
2018-06-09T16:18:30.885Z,34.54
2018-06-09T16:21:00.712Z,34.68
2018-06-09T16:23:31.269Z,34.62
2018-06-09T16:26:01.539Z,34.92
2018-06-09T16:28:31.994Z,35.03
2018-06-09T16:31:02.339Z,35.07
2018-06-09T16:33:32.884Z,35.04
2018-06-09T16:36:03.162Z,34.95
2018-06-09T16:38:33.706Z,34.84
2018-06-09T16:41:03.999Z,34.57
2018-06-09T16:43:34.437Z,34.19
2018-06-09T16:46:04.768Z,34.18
2018-06-09T16:48:35.154Z,33.94
2018-06-09T16:51:05.486Z,33.77
2018-06-09T16:53:36.025Z,33.69
2018-06-09T16:56:06.415Z,33.58
2018-06-09T16:58:36.986Z,33.36
2018-06-09T17:01:07.358Z,33.23
2018-06-09T17:03:37.725Z,33.06
2018-06-09T17:06:08.019Z,33.16
2018-06-09T17:08:38.298Z,33.07
2018-06-09T17:11:09.013Z,33.07
2018-06-09T17:13:39.321Z,32.88
2018-06-09T17:16:09.703Z,32.96
2018-06-09T17:18:40.091Z,32.65
2018-06-09T17:21:10.417Z,32.71
2018-06-09T17:23:40.746Z,32.61
2018-06-09T17:26:11.042Z,32.55
2018-06-09T17:28:41.686Z,32.55
2018-06-09T17:31:11.967Z,32.30
2018-06-09T17:33:42.738Z,32.26
2018-06-09T17:36:13.010Z,32.22
2018-06-09T17:38:43.406Z,32.07
2018-06-09T17:41:13.682Z,31.97
2018-06-09T17:43:44.054Z,32.04
2018-06-09T17:46:14.401Z,31.69
2018-06-09T17:48:44.897Z,31.65
2018-06-09T17:51:15.219Z,31.49
2018-06-09T17:53:45.541Z,31.19
2018-06-09T17:56:15.823Z,31.17
2018-06-09T17:58:46.146Z,31.06
2018-06-09T18:01:16.494Z,30.90
2018-06-09T18:03:46.773Z,30.70
2018-06-09T18:06:17.142Z,30.77
2018-06-09T18:08:47.834Z,30.66
2018-06-09T18:11:18.117Z,30.57
2018-06-09T18:13:48.515Z,30.58
2018-06-09T18:16:18.802Z,30.57
2018-06-09T18:18:49.221Z,30.57
2018-06-09T18:21:19.671Z,30.49
2018-06-09T18:23:50.337Z,30.34
2018-06-09T18:26:20.658Z,30.18
2018-06-09T18:28:51.793Z,30.06
2018-06-09T18:31:22.053Z,30.01
2018-06-09T18:33:52.622Z,30.04
2018-06-09T18:36:22.942Z,30.12
2018-06-09T18:38:53.318Z,30.13
2018-06-09T18:41:23.148Z,30.13
2018-06-09T18:43:53.756Z,30.07
2018-06-09T18:46:23.994Z,30.06
2018-06-09T18:48:54.559Z,30.13
2018-06-09T18:51:24.912Z,30.20
2018-06-09T18:53:55.217Z,30.09
2018-06-09T18:56:25.682Z,30.03
2018-06-09T18:58:55.971Z,30.28
2018-06-09T19:01:26.365Z,30.21
2018-06-09T19:03:56.715Z,30.16
2018-06-09T19:06:27.434Z,30.18
2018-06-09T19:08:57.727Z,30.28
2018-06-09T19:11:27.556Z,30.28
2018-06-09T19:13:58.021Z,30.40
2018-06-09T19:16:28.382Z,30.42
2018-06-09T19:19:00.927Z,29.69
2018-06-09T19:21:31.222Z,29.59
2018-06-09T19:24:01.749Z,29.38
2018-06-09T19:26:32.035Z,29.21
2018-06-09T19:29:02.391Z,29.32
2018-06-09T19:31:32.729Z,29.57
2018-06-09T19:34:03.174Z,29.63
2018-06-09T19:36:33.458Z,29.59
2018-06-09T19:39:04.063Z,29.49
2018-06-09T19:41:34.511Z,29.34
2018-06-09T19:44:04.736Z,29.31
2018-06-09T19:46:35.703Z,29.58
2018-06-09T19:49:06.046Z,29.54
2018-06-09T19:51:36.370Z,29.44
2018-06-09T19:54:06.809Z,29.35
2018-06-09T19:56:37.088Z,29.20
2018-06-09T19:59:07.778Z,29.28
2018-06-09T20:01:38.110Z,29.14
2018-06-09T20:04:08.474Z,28.95
2018-06-09T20:06:39.276Z,28.86
2018-06-09T20:09:10.833Z,28.76
2018-06-09T20:11:41.218Z,28.75
2018-06-09T20:14:11.811Z,28.58
2018-06-09T20:16:42.163Z,28.56
2018-06-09T20:19:12.595Z,28.50
2018-06-09T20:21:42.897Z,28.68
2018-06-09T20:24:13.231Z,28.40
2018-06-09T20:26:43.642Z,28.28
2018-06-09T20:29:14.019Z,27.94
2018-06-09T20:31:44.509Z,28.04
2018-06-09T20:34:15.017Z,27.83
2018-06-09T20:36:45.798Z,28.03
2018-06-09T20:39:16.074Z,27.93
2018-06-09T20:41:47.389Z,28.32
2018-06-09T20:44:17.763Z,27.86
2018-06-09T20:46:48.149Z,27.84
2018-06-09T20:49:18.550Z,27.62
2018-06-09T20:51:48.920Z,27.74
2018-06-09T20:54:19.487Z,27.72
2018-06-09T20:56:49.830Z,27.55
2018-06-09T20:59:20.393Z,27.57
2018-06-09T21:01:50.723Z,27.58
2018-06-09T21:04:21.001Z,27.56
2018-06-09T21:06:51.603Z,27.43
2018-06-09T21:09:21.882Z,27.00
2018-06-09T21:11:52.381Z,26.97
2018-06-09T21:14:22.713Z,27.03
2018-06-09T21:16:53.234Z,26.75
2018-06-09T21:19:23.493Z,27.01
2018-06-09T21:21:53.798Z,26.78
2018-06-09T21:24:24.142Z,26.70
2018-06-09T21:26:59.575Z,26.75
2018-06-09T21:29:38.834Z,26.89
2018-06-09T21:32:09.801Z,26.72
2018-06-09T21:35:01.921Z,26.67
2018-06-09T21:37:42.653Z,26.68
2018-06-09T21:40:32.844Z,26.24
2018-06-09T21:43:08.234Z,26.26
2018-06-09T21:45:43.502Z,26.22
2018-06-09T21:48:13.983Z,26.19
2018-06-09T21:50:44.309Z,25.75
2018-06-09T21:53:14.666Z,25.73
2018-06-09T21:55:45.008Z,25.68
2018-06-09T21:58:15.766Z,25.62
2018-06-09T22:00:46.477Z,25.56
2018-06-09T22:03:17.083Z,25.62
2018-06-09T22:05:47.462Z,25.59
2018-06-09T22:08:17.782Z,25.59
2018-06-09T22:10:48.573Z,25.59
2018-06-09T22:13:19.265Z,25.79
2018-06-09T22:15:49.577Z,25.66
2018-06-09T22:18:20.230Z,25.93
2018-06-09T22:20:50.958Z,25.62
2018-06-09T22:23:21.546Z,25.65
2018-06-09T22:25:56.926Z,25.69
2018-06-09T22:28:27.669Z,25.81
2018-06-09T22:30:58.359Z,25.74
2018-06-09T22:33:29.086Z,25.64
2018-06-09T22:35:59.341Z,25.55
2018-06-09T22:38:29.990Z,25.63
2018-06-09T22:41:00.837Z,25.84
2018-06-09T22:43:31.092Z,25.85
2018-06-09T22:46:01.565Z,25.83
2018-06-09T22:48:31.858Z,26.11
2018-06-09T22:51:02.423Z,26.00
2018-06-09T22:53:32.699Z,25.86
2018-06-09T22:56:03.246Z,25.88
2018-06-09T22:58:33.594Z,25.96
2018-06-09T23:01:03.905Z,25.73
2018-06-09T23:03:34.230Z,25.82
2018-06-09T23:06:04.530Z,26.12
2018-06-09T23:08:34.797Z,26.14
2018-06-09T23:11:05.304Z,25.86
2018-06-09T23:13:35.585Z,25.91
2018-06-09T23:16:06.214Z,25.81
2018-06-09T23:18:36.485Z,25.98
2018-06-09T23:21:06.770Z,25.91
2018-06-09T23:23:37.285Z,25.92
2018-06-09T23:26:07.606Z,25.84
2018-06-09T23:28:37.926Z,25.88
2018-06-09T23:31:08.191Z,26.05
2018-06-09T23:33:38.675Z,25.87
2018-06-09T23:36:08.998Z,26.02
2018-06-09T23:38:39.357Z,25.90
2018-06-09T23:41:09.674Z,25.71
2018-06-09T23:43:40.166Z,25.54
2018-06-09T23:46:10.440Z,25.32
2018-06-09T23:48:41.086Z,25.45
2018-06-09T23:51:11.357Z,25.12
2018-06-09T23:53:41.689Z,25.23
2018-06-09T23:56:12.051Z,25.55
2018-06-09T23:58:42.645Z,25.41
